createdAt,value
2022-08-28T00:00:52.507Z,18.35
2022-08-28T00:03:39.445Z,18.34
2022-08-28T00:06:19.436Z,18.34
2022-08-28T00:09:14.454Z,18.31
2022-08-28T00:12:01.446Z,18.31
2022-08-28T00:14:41.440Z,18.27
2022-08-28T00:17:35.445Z,18.23
2022-08-28T00:20:27.454Z,18.19
2022-08-28T00:23:00.557Z,18.14
2022-08-28T00:25:47.458Z,18.08
2022-08-28T00:28:24.304Z,18.03
2022-08-28T00:31:19.517Z,18.02
2022-08-28T00:34:09.460Z,18.03
2022-08-28T00:36:44.560Z,18.01
2022-08-28T00:39:31.453Z,17.97
2022-08-28T00:42:11.475Z,17.93
2022-08-28T00:44:58.464Z,17.89
2022-08-28T00:47:38.472Z,17.85
2022-08-28T00:50:36.467Z,17.82
2022-08-28T00:53:25.346Z,17.82
2022-08-28T00:56:13.141Z,17.83
2022-08-28T00:59:04.466Z,17.81
2022-08-28T01:01:45.574Z,17.80
2022-08-28T01:04:44.464Z,17.81
2022-08-28T01:07:38.499Z,17.83
2022-08-28T01:10:28.476Z,17.84
2022-08-28T01:13:02.550Z,17.83
2022-08-28T01:15:49.525Z,17.81
2022-08-28T01:18:30.473Z,17.79
2022-08-28T01:21:43.495Z,17.75
2022-08-28T01:24:31.475Z,17.72
2022-08-28T01:27:04.563Z,17.72
2022-08-28T01:29:51.471Z,17.71
2022-08-28T01:32:44.586Z,17.66
2022-08-28T01:35:35.492Z,17.63
2022-08-28T01:38:08.628Z,17.58
2022-08-28T01:40:59.501Z,17.56
2022-08-28T01:43:33.580Z,17.56
2022-08-28T01:46:20.591Z,17.52
2022-08-28T01:48:57.005Z,17.47
2022-08-28T01:51:43.498Z,17.40
2022-08-28T01:54:17.595Z,17.37
2022-08-28T01:57:04.499Z,17.31
2022-08-28T01:59:37.649Z,17.27
2022-08-28T02:02:24.502Z,17.24
2022-08-28T02:05:04.511Z,17.22
2022-08-28T02:07:51.520Z,17.18
2022-08-28T02:10:33.514Z,17.14
2022-08-28T02:13:27.531Z,17.12
2022-08-28T02:16:16.560Z,17.13
2022-08-28T02:18:57.533Z,17.14
2022-08-28T02:21:44.523Z,17.13
2022-08-28T02:24:24.505Z,17.11
2022-08-28T02:27:11.533Z,17.08
2022-08-28T02:29:44.681Z,17.06
2022-08-28T02:32:39.525Z,17.01
2022-08-28T02:35:27.532Z,16.97
2022-08-28T02:38:01.569Z,16.95
2022-08-28T02:40:48.517Z,16.90
2022-08-28T02:43:21.604Z,16.87
2022-08-28T02:46:09.587Z,16.87
2022-08-28T02:48:45.700Z,16.89
2022-08-28T02:51:32.559Z,16.88
2022-08-28T02:54:06.615Z,16.85
2022-08-28T02:56:53.535Z,16.81
2022-08-28T02:59:27.676Z,16.80
2022-08-28T03:02:14.611Z,16.83
2022-08-28T03:04:48.472Z,16.85
2022-08-28T03:07:35.617Z,16.89
2022-08-28T03:10:08.742Z,16.91
2022-08-28T03:12:55.590Z,16.91
2022-08-28T03:15:35.606Z,16.88
2022-08-28T03:18:29.601Z,16.80
2022-08-28T03:21:24.566Z,16.75
2022-08-28T03:24:11.581Z,16.69
2022-08-28T03:26:48.630Z,16.72
2022-08-28T03:29:35.575Z,16.71
2022-08-28T03:32:08.699Z,16.71
2022-08-28T03:34:56.566Z,16.67
2022-08-28T03:37:36.608Z,16.64
2022-08-28T03:40:23.668Z,16.59
2022-08-28T03:43:03.583Z,16.54
2022-08-28T03:46:19.091Z,16.54
2022-08-28T03:49:14.611Z,16.55
2022-08-28T03:52:01.597Z,16.56
2022-08-28T03:54:34.699Z,16.56
2022-08-28T03:57:29.634Z,16.53
2022-08-28T04:00:09.583Z,16.50
2022-08-28T04:03:03.655Z,16.49
2022-08-28T04:05:52.610Z,16.50
2022-08-28T04:08:27.343Z,16.54
2022-08-28T04:11:14.614Z,16.56
2022-08-28T04:13:54.617Z,16.59
2022-08-28T04:16:49.699Z,16.61
2022-08-28T04:19:36.623Z,16.66
2022-08-28T04:22:18.293Z,16.66
2022-08-28T04:25:12.617Z,16.66
2022-08-28T04:28:02.655Z,16.67
2022-08-28T04:30:42.609Z,16.71
2022-08-28T04:33:37.618Z,16.77
2022-08-28T04:36:24.608Z,16.83
2022-08-28T04:39:04.603Z,16.87
2022-08-28T04:41:58.612Z,16.91
2022-08-28T04:44:46.668Z,16.96
2022-08-28T04:47:26.614Z,17.00
2022-08-28T04:50:22.614Z,17.03
2022-08-28T04:53:18.610Z,17.06
2022-08-28T04:56:05.646Z,17.08
2022-08-28T04:58:40.708Z,17.11
2022-08-28T05:01:30.672Z,17.14
2022-08-28T05:04:18.615Z,17.18
2022-08-28T05:07:14.618Z,17.21
2022-08-28T05:10:08.632Z,17.22
2022-08-28T05:13:04.614Z,17.20
2022-08-28T05:15:55.702Z,17.18
2022-08-28T05:18:29.700Z,17.16
2022-08-28T05:21:22.621Z,17.16
2022-08-28T05:23:59.776Z,17.18
2022-08-28T05:26:48.766Z,17.21
2022-08-28T05:29:29.668Z,17.23
2022-08-28T05:32:23.633Z,17.27
2022-08-28T05:35:10.636Z,17.33
2022-08-28T05:37:50.625Z,17.40
2022-08-28T05:40:44.647Z,17.45
2022-08-28T05:43:32.639Z,17.52
2022-08-28T05:46:11.840Z,17.63
2022-08-28T05:48:58.634Z,17.75
2022-08-28T05:51:40.629Z,17.86
2022-08-28T05:54:29.154Z,18.01
2022-08-28T05:57:09.642Z,18.16
2022-08-28T06:00:03.651Z,18.36
2022-08-28T06:02:51.644Z,18.54
2022-08-28T06:05:25.754Z,18.74
2022-08-28T06:08:12.667Z,18.91
2022-08-28T06:10:50.936Z,19.05
2022-08-28T06:13:40.814Z,19.17
2022-08-28T06:16:22.748Z,19.28
2022-08-28T06:19:09.640Z,19.38
2022-08-28T06:21:51.684Z,19.50
2022-08-28T06:24:46.649Z,19.60
2022-08-28T06:27:43.660Z,19.73
2022-08-28T06:30:40.060Z,19.85
2022-08-28T06:33:35.668Z,19.92
2022-08-28T06:36:24.720Z,20.00
2022-08-28T06:38:58.482Z,20.05
2022-08-28T06:41:49.664Z,20.13
2022-08-28T06:44:34.712Z,20.26
2022-08-28T06:47:28.708Z,20.40
2022-08-28T06:50:15.655Z,20.55
2022-08-28T06:52:48.753Z,20.69
2022-08-28T06:55:35.687Z,20.80
2022-08-28T06:58:08.760Z,20.93
2022-08-28T07:01:02.856Z,21.01
2022-08-28T07:03:44.380Z,21.13
2022-08-28T07:06:36.997Z,21.26
2022-08-28T07:09:12.757Z,21.44
2022-08-28T07:11:59.683Z,21.59
2022-08-28T07:14:32.763Z,21.73
2022-08-28T07:17:19.672Z,21.82
2022-08-28T07:19:52.777Z,21.96
2022-08-28T07:22:39.696Z,22.03
2022-08-28T07:25:21.709Z,22.16
2022-08-28T07:28:08.749Z,22.24
2022-08-28T07:30:41.805Z,22.31
2022-08-28T07:33:28.706Z,22.44
2022-08-28T07:36:03.477Z,22.65
2022-08-28T07:38:50.707Z,22.73
2022-08-28T07:41:34.700Z,22.79
2022-08-28T07:44:47.716Z,22.79
2022-08-28T07:47:45.703Z,22.74
2022-08-28T07:50:32.704Z,22.71
2022-08-28T07:53:06.287Z,22.70
2022-08-28T07:55:52.705Z,22.63
2022-08-28T07:58:33.719Z,22.61
2022-08-28T08:01:27.766Z,22.50
2022-08-28T08:04:26.728Z,22.44
2022-08-28T08:07:14.720Z,22.40
2022-08-28T08:09:49.826Z,22.37
2022-08-28T08:12:36.737Z,22.30
2022-08-28T08:15:11.838Z,22.28
2022-08-28T08:17:58.736Z,22.21
2022-08-28T08:20:31.812Z,22.19
2022-08-28T08:23:18.730Z,22.11
2022-08-28T08:26:06.284Z,22.07
2022-08-28T08:28:53.743Z,22.04
2022-08-28T08:31:29.925Z,22.00
2022-08-28T08:34:16.738Z,21.94
2022-08-28T08:36:56.740Z,21.88
2022-08-28T08:39:50.735Z,21.80
2022-08-28T08:42:40.734Z,21.75
2022-08-28T08:45:27.751Z,21.73
2022-08-28T08:48:20.739Z,21.68
2022-08-28T08:50:55.426Z,21.65
2022-08-28T08:53:52.735Z,21.59
2022-08-28T08:56:34.896Z,21.56
2022-08-28T08:59:28.746Z,21.51
2022-08-28T09:02:12.197Z,21.46
2022-08-28T09:05:11.755Z,21.41
2022-08-28T09:08:08.818Z,21.39
2022-08-28T09:11:13.774Z,21.35
2022-08-28T09:14:09.755Z,21.31
2022-08-28T09:16:46.859Z,21.26
2022-08-28T09:19:33.759Z,21.21
2022-08-28T09:22:13.779Z,21.16
2022-08-28T09:25:07.762Z,21.09
2022-08-28T09:27:59.760Z,21.04
2022-08-28T09:30:44.818Z,20.99
2022-08-28T09:33:45.747Z,20.91
2022-08-28T09:36:48.768Z,20.87
2022-08-28T09:39:40.766Z,20.82
2022-08-28T09:42:53.813Z,20.77
2022-08-28T09:45:47.778Z,20.72
2022-08-28T09:48:46.775Z,20.67
2022-08-28T09:51:38.680Z,20.62
2022-08-28T09:54:42.789Z,20.55
2022-08-28T09:57:15.866Z,20.49
2022-08-28T10:00:03.778Z,20.46
2022-08-28T10:03:07.003Z,20.41
2022-08-28T10:06:10.783Z,20.35
2022-08-28T10:09:15.790Z,20.33
2022-08-28T10:12:18.786Z,20.34
2022-08-28T10:15:14.875Z,20.33
2022-08-28T10:18:37.804Z,20.33
2022-08-28T10:21:58.813Z,20.31
2022-08-28T10:25:10.781Z,20.28
2022-08-28T10:28:09.953Z,20.26
2022-08-28T10:30:56.929Z,20.26
2022-08-28T10:33:56.829Z,20.24
2022-08-28T10:36:36.991Z,20.24
2022-08-28T10:39:48.801Z,20.20
2022-08-28T10:42:36.901Z,20.21
2022-08-28T10:45:29.808Z,20.22
2022-08-28T10:48:28.820Z,20.23
2022-08-28T10:51:57.795Z,20.20
2022-08-28T10:54:59.830Z,20.16
2022-08-28T10:57:55.808Z,20.13
2022-08-28T11:00:50.847Z,20.09
2022-08-28T11:03:58.825Z,20.11
2022-08-28T11:06:58.832Z,20.13
2022-08-28T11:09:52.823Z,20.14
2022-08-28T11:12:32.810Z,20.15
2022-08-28T11:16:00.825Z,20.16
2022-08-28T11:19:13.857Z,20.16
2022-08-28T11:21:57.072Z,20.18
2022-08-28T11:25:04.272Z,20.23
2022-08-28T11:27:42.901Z,20.28
2022-08-28T11:30:47.905Z,20.31
2022-08-28T11:34:02.858Z,20.36
2022-08-28T11:36:49.860Z,20.39
2022-08-28T11:39:29.850Z,20.43
2022-08-28T11:42:23.847Z,20.48
2022-08-28T11:45:11.852Z,20.49
2022-08-28T11:47:52.282Z,20.54
2022-08-28T11:50:57.843Z,20.56
2022-08-28T11:54:13.858Z,20.59
2022-08-28T11:57:22.987Z,20.61
2022-08-28T12:00:24.872Z,20.64
2022-08-28T12:03:16.865Z,20.69
2022-08-28T12:06:01.960Z,20.74
2022-08-28T12:08:51.849Z,20.79
2022-08-28T12:11:53.873Z,20.85
2022-08-28T12:15:13.867Z,20.93
2022-08-28T12:18:12.883Z,21.03
2022-08-28T12:20:57.933Z,21.15
2022-08-28T12:23:50.848Z,21.27
2022-08-28T12:26:32.145Z,21.39
2022-08-28T12:29:44.861Z,21.52
2022-08-28T12:32:46.878Z,21.63
2022-08-28T12:35:34.874Z,21.75
2022-08-28T12:38:11.961Z,21.84
2022-08-28T12:40:59.882Z,21.93
2022-08-28T12:43:47.080Z,22.02
2022-08-28T12:46:37.924Z,22.07
2022-08-28T12:49:47.860Z,22.12
2022-08-28T12:52:41.888Z,22.16
2022-08-28T12:55:29.871Z,22.19
2022-08-28T12:58:09.915Z,22.25
2022-08-28T13:01:10.074Z,22.29
2022-08-28T13:04:07.911Z,22.33
2022-08-28T13:07:07.897Z,22.34
2022-08-28T13:09:41.953Z,22.33
2022-08-28T13:12:56.235Z,22.26
2022-08-28T13:15:55.913Z,22.24
2022-08-28T13:18:59.905Z,22.22
2022-08-28T13:22:35.887Z,22.24
2022-08-28T13:25:10.050Z,22.26
2022-08-28T13:28:09.911Z,22.27
2022-08-28T13:30:49.977Z,22.32
2022-08-28T13:33:43.906Z,22.38
2022-08-28T13:36:39.930Z,22.41
2022-08-28T13:39:34.913Z,22.45
2022-08-28T13:42:24.930Z,22.50
2022-08-28T13:45:00.016Z,22.56
2022-08-28T13:47:46.991Z,22.56
2022-08-28T13:50:26.944Z,22.59
2022-08-28T13:53:20.913Z,22.58
2022-08-28T13:56:08.946Z,22.58
2022-08-28T13:58:41.997Z,22.60
2022-08-28T14:01:51.067Z,22.59
2022-08-28T14:04:24.009Z,22.63
2022-08-28T14:07:10.937Z,22.64
2022-08-28T14:09:45.172Z,22.65
2022-08-28T14:12:33.612Z,22.65
2022-08-28T14:15:14.956Z,22.66
2022-08-28T14:18:01.945Z,22.65
2022-08-28T14:20:35.010Z,22.69
2022-08-28T14:23:21.941Z,22.69
2022-08-28T14:26:01.943Z,22.72
2022-08-28T14:28:48.970Z,22.73
2022-08-28T14:31:28.991Z,22.73
2022-08-28T14:34:28.961Z,22.71
2022-08-28T14:37:15.940Z,22.70
2022-08-28T14:39:50.536Z,22.69
2022-08-28T14:42:36.952Z,22.68
2022-08-28T14:45:10.053Z,22.68
2022-08-28T14:47:56.989Z,22.66
2022-08-28T14:50:36.967Z,22.66
2022-08-28T14:53:30.968Z,22.65
2022-08-28T14:56:18.967Z,22.65
2022-08-28T14:58:52.089Z,22.65
2022-08-28T15:01:43.992Z,22.66
2022-08-28T15:04:22.755Z,22.68
2022-08-28T15:07:13.983Z,22.70
2022-08-28T15:09:55.963Z,22.73
2022-08-28T15:12:49.966Z,22.73
2022-08-28T15:15:48.978Z,22.74
2022-08-28T15:18:43.947Z,22.76
2022-08-28T15:21:44.983Z,22.80
2022-08-28T15:24:34.974Z,22.81
2022-08-28T15:27:15.981Z,22.83
2022-08-28T15:30:10.019Z,22.84
2022-08-28T15:33:05.008Z,22.85
2022-08-28T15:35:51.981Z,22.88
2022-08-28T15:38:31.978Z,22.90
2022-08-28T15:41:31.979Z,22.90
2022-08-28T15:44:18.992Z,22.89
2022-08-28T15:47:01.306Z,22.89
2022-08-28T15:49:52.105Z,22.88
2022-08-28T15:52:25.201Z,22.88
2022-08-28T15:55:12.997Z,22.84
2022-08-28T15:57:46.763Z,22.83
2022-08-28T16:00:34.045Z,22.78
2022-08-28T16:03:14.088Z,22.76
2022-08-28T16:06:08.008Z,22.71
2022-08-28T16:08:56.005Z,22.68
2022-08-28T16:11:32.171Z,22.66
2022-08-28T16:14:21.237Z,22.61
2022-08-28T16:16:54.288Z,22.59
2022-08-28T16:19:41.033Z,22.55
2022-08-28T16:22:16.428Z,22.52
2022-08-28T16:25:04.038Z,22.49
2022-08-28T16:27:37.082Z,22.46
2022-08-28T16:30:24.509Z,22.43
2022-08-28T16:32:58.111Z,22.39
2022-08-28T16:35:54.911Z,22.34
2022-08-28T16:38:30.550Z,22.33
2022-08-28T16:41:23.021Z,22.29
2022-08-28T16:44:04.024Z,22.27
2022-08-28T16:46:58.117Z,22.22
2022-08-28T16:49:45.022Z,22.17
2022-08-28T16:52:26.042Z,22.16
2022-08-28T16:55:15.059Z,22.11
2022-08-28T16:57:55.067Z,22.09
2022-08-28T17:00:44.519Z,22.07
2022-08-28T17:03:26.170Z,22.05
2022-08-28T17:06:18.041Z,22.00
2022-08-28T17:08:56.469Z,21.97
2022-08-28T17:11:44.051Z,21.94
2022-08-28T17:14:18.152Z,21.92
2022-08-28T17:17:05.029Z,21.89
2022-08-28T17:19:39.120Z,21.87
2022-08-28T17:22:38.050Z,21.83
2022-08-28T17:25:17.733Z,21.80
2022-08-28T17:28:04.057Z,21.77
2022-08-28T17:30:44.060Z,21.76
2022-08-28T17:33:38.058Z,21.71
2022-08-28T17:36:34.307Z,21.67
2022-08-28T17:39:22.070Z,21.61
2022-08-28T17:42:02.118Z,21.59
2022-08-28T17:44:56.069Z,21.53
2022-08-28T17:47:43.100Z,21.48
2022-08-28T17:50:17.170Z,21.42
2022-08-28T17:53:04.076Z,21.39
2022-08-28T17:55:37.212Z,21.35
2022-08-28T17:58:24.093Z,21.30
2022-08-28T18:00:58.374Z,21.26
2022-08-28T18:03:53.418Z,21.24
2022-08-28T18:06:27.167Z,21.21
2022-08-28T18:09:15.129Z,21.17
2022-08-28T18:11:49.288Z,21.15
2022-08-28T18:14:36.085Z,21.13
2022-08-28T18:17:18.100Z,21.11
2022-08-28T18:20:06.084Z,21.09
2022-08-28T18:22:46.094Z,21.08
2022-08-28T18:25:50.859Z,21.04
2022-08-28T18:28:36.063Z,21.02
2022-08-28T18:31:30.162Z,20.97
2022-08-28T18:34:25.070Z,20.94
2022-08-28T18:37:12.092Z,20.90
2022-08-28T18:39:53.097Z,20.88
2022-08-28T18:42:41.105Z,20.83
2022-08-28T18:45:22.115Z,20.81
2022-08-28T18:48:16.089Z,20.78
2022-08-28T18:51:03.101Z,20.74
2022-08-28T18:53:36.183Z,20.73
2022-08-28T18:56:23.113Z,20.72
2022-08-28T18:58:58.220Z,20.72
2022-08-28T19:01:45.183Z,20.71
2022-08-28T19:04:18.408Z,20.69
2022-08-28T19:07:05.099Z,20.68
2022-08-28T19:09:38.277Z,20.66
2022-08-28T19:12:25.105Z,20.64
2022-08-28T19:15:02.210Z,20.64
2022-08-28T19:17:49.140Z,20.63
2022-08-28T19:20:27.407Z,20.63
2022-08-28T19:23:17.381Z,20.63
2022-08-28T19:25:58.118Z,20.62
2022-08-28T19:28:47.164Z,20.62
2022-08-28T19:31:20.486Z,20.61
2022-08-28T19:34:14.144Z,20.58
2022-08-28T19:37:01.144Z,20.55
2022-08-28T19:39:35.207Z,20.57
2022-08-28T19:42:22.142Z,20.53
2022-08-28T19:44:59.950Z,20.50
2022-08-28T19:47:47.155Z,20.46
2022-08-28T19:50:21.284Z,20.43
2022-08-28T19:53:08.144Z,20.38
2022-08-28T19:55:48.144Z,20.35
2022-08-28T19:58:42.126Z,20.30
2022-08-28T20:01:29.182Z,20.27
2022-08-28T20:04:03.227Z,20.22
2022-08-28T20:06:52.176Z,20.19
2022-08-28T20:09:25.257Z,20.17
2022-08-28T20:12:12.137Z,20.15
2022-08-28T20:14:45.645Z,20.13
2022-08-28T20:17:32.182Z,20.10
2022-08-28T20:20:08.345Z,20.06
2022-08-28T20:22:55.162Z,20.01
2022-08-28T20:25:29.288Z,19.98
2022-08-28T20:28:16.303Z,19.98
2022-08-28T20:30:53.382Z,19.95
2022-08-28T20:33:41.182Z,19.88
2022-08-28T20:36:22.168Z,19.84
2022-08-28T20:39:13.168Z,19.79
2022-08-28T20:41:47.278Z,19.77
2022-08-28T20:44:34.157Z,19.74
2022-08-28T20:47:07.252Z,19.72
2022-08-28T20:49:55.156Z,19.66
2022-08-28T20:52:36.195Z,19.62
2022-08-28T20:55:23.178Z,19.57
2022-08-28T20:57:56.270Z,19.53
2022-08-28T21:00:43.201Z,19.50
2022-08-28T21:03:16.275Z,19.48
2022-08-28T21:06:03.183Z,19.44
2022-08-28T21:08:36.270Z,19.41
2022-08-28T21:11:24.175Z,19.35
2022-08-28T21:13:58.296Z,19.31
2022-08-28T21:16:46.208Z,19.27
2022-08-28T21:19:21.683Z,19.27
2022-08-28T21:22:08.190Z,19.25
2022-08-28T21:24:42.300Z,19.25
2022-08-28T21:27:29.202Z,19.22
2022-08-28T21:30:06.320Z,19.20
2022-08-28T21:32:55.212Z,19.18
2022-08-28T21:35:49.209Z,19.16
2022-08-28T21:38:36.215Z,19.18
2022-08-28T21:41:14.096Z,19.17
2022-08-28T21:44:02.194Z,19.14
2022-08-28T21:46:42.217Z,19.10
2022-08-28T21:49:36.182Z,19.08
2022-08-28T21:52:27.209Z,19.06
2022-08-28T21:55:09.308Z,19.07
2022-08-28T21:57:56.240Z,19.05
2022-08-28T22:00:30.547Z,19.06
2022-08-28T22:03:17.255Z,19.05
2022-08-28T22:05:52.308Z,19.07
2022-08-28T22:08:39.215Z,19.06
2022-08-28T22:11:25.183Z,19.06
2022-08-28T22:14:12.233Z,19.06
2022-08-28T22:16:45.381Z,19.05
2022-08-28T22:19:32.226Z,19.05
2022-08-28T22:22:31.213Z,19.05
2022-08-28T22:25:18.241Z,19.04
2022-08-28T22:27:51.288Z,19.00
2022-08-28T22:30:38.240Z,18.96
2022-08-28T22:33:13.388Z,18.95
2022-08-28T22:36:00.217Z,18.94
2022-08-28T22:38:33.319Z,18.94
2022-08-28T22:41:20.257Z,18.94
2022-08-28T22:44:04.254Z,18.94
2022-08-28T22:46:58.233Z,18.94
2022-08-28T22:49:45.247Z,18.91
2022-08-28T22:52:18.353Z,18.90
2022-08-28T22:55:05.512Z,18.90
2022-08-28T22:57:40.478Z,18.90
2022-08-28T23:00:32.269Z,18.91
2022-08-28T23:03:06.765Z,18.95
2022-08-28T23:05:53.260Z,18.96
2022-08-28T23:08:29.648Z,18.97
2022-08-28T23:11:18.276Z,18.94
2022-08-28T23:13:51.362Z,18.96
2022-08-28T23:16:38.307Z,18.94
2022-08-28T23:19:13.712Z,18.94
2022-08-28T23:22:00.283Z,18.92
2022-08-28T23:24:33.340Z,18.91
2022-08-28T23:27:35.865Z,18.88
2022-08-28T23:30:18.268Z,18.84
2022-08-28T23:33:12.277Z,18.85
2022-08-28T23:36:06.272Z,18.83
2022-08-28T23:39:00.302Z,18.82
2022-08-28T23:41:55.286Z,18.81
2022-08-28T23:44:49.271Z,18.77
2022-08-28T23:47:43.256Z,18.71
2022-08-28T23:50:30.278Z,18.67
2022-08-28T23:53:10.272Z,18.69
2022-08-28T23:55:57.291Z,18.68
2022-08-28T23:58:33.368Z,18.67
